createdAt,value
2023-01-13T00:01:29.067Z,59.80
2023-01-13T00:03:57.227Z,61.75
2023-01-13T00:06:26.124Z,54.83
2023-01-13T00:08:54.172Z,56.50
2023-01-13T00:11:21.750Z,59.58
2023-01-13T00:13:48.742Z,54.88
2023-01-13T00:16:18.864Z,47.05
2023-01-13T00:18:46.335Z,53.20
2023-01-13T00:21:19.929Z,56.90
2023-01-13T00:23:47.919Z,59.25
2023-01-13T00:26:24.118Z,57.75
2023-01-13T00:28:51.345Z,54.20
2023-01-13T00:31:20.851Z,57.78
2023-01-13T00:33:51.610Z,55.53
2023-01-13T00:36:20.844Z,57.50
2023-01-13T00:38:48.478Z,55.92
2023-01-13T00:41:19.486Z,54.75
2023-01-13T00:43:47.422Z,57.03
2023-01-13T00:46:17.814Z,56.00
2023-01-13T00:48:45.974Z,59.95
2023-01-13T00:51:17.171Z,59.05
2023-01-13T00:53:47.472Z,59.33
2023-01-13T00:56:41.166Z,61.20
2023-01-13T00:59:12.552Z,51.13
2023-01-13T01:01:41.238Z,50.63
2023-01-13T01:04:08.470Z,50.55
2023-01-13T01:06:35.575Z,54.40
2023-01-13T01:09:03.604Z,50.03
2023-01-13T01:11:33.281Z,54.28
2023-01-13T01:14:03.275Z,57.90
2023-01-13T01:16:33.004Z,54.58
2023-01-13T01:19:01.113Z,52.05
2023-01-13T01:21:29.082Z,54.97
2023-01-13T01:23:59.349Z,53.75
2023-01-13T01:26:28.602Z,50.10
2023-01-13T01:28:55.565Z,52.67
2023-01-13T01:31:31.990Z,58.20
2023-01-13T01:34:00.685Z,56.75
2023-01-13T01:36:30.299Z,55.47
2023-01-13T01:38:59.391Z,58.35
2023-01-13T01:41:31.817Z,55.72
2023-01-13T01:44:08.468Z,58.88
2023-01-13T01:46:40.884Z,53.42
2023-01-13T01:49:22.738Z,52.65
2023-01-13T01:52:35.075Z,47.90
2023-01-13T01:55:06.892Z,51.20
2023-01-13T01:57:46.761Z,54.47
2023-01-13T02:00:14.648Z,60.40
2023-01-13T02:02:45.457Z,45.05
2023-01-13T02:05:13.538Z,54.30
2023-01-13T02:07:43.694Z,58.00
2023-01-13T02:10:15.125Z,62.78
2023-01-13T02:12:45.329Z,51.00
2023-01-13T02:15:16.805Z,52.88
2023-01-13T02:18:07.147Z,60.83
2023-01-13T02:21:02.569Z,50.90
2023-01-13T02:24:27.889Z,51.22
2023-01-13T02:27:22.844Z,53.25
2023-01-13T02:30:23.602Z,50.45
2023-01-13T02:33:08.819Z,50.70
2023-01-13T02:36:01.609Z,54.08
2023-01-13T02:38:41.133Z,51.45
2023-01-13T02:41:47.071Z,48.47
2023-01-13T02:44:20.971Z,51.22
2023-01-13T02:47:06.841Z,46.75
2023-01-13T02:49:41.467Z,48.00
2023-01-13T02:52:15.850Z,49.17
2023-01-13T02:57:18.269Z,52.15
2023-01-13T02:59:45.421Z,51.80
2023-01-13T03:02:19.561Z,53.08
2023-01-13T03:08:17.883Z,56.92
2023-01-13T03:11:00.149Z,52.70
2023-01-13T03:14:00.887Z,50.08
2023-01-13T03:16:52.860Z,59.90
2023-01-13T03:20:14.449Z,51.72
2023-01-13T03:23:30.245Z,49.25
2023-01-13T03:26:09.050Z,59.35
2023-01-13T03:28:57.315Z,55.25
2023-01-13T03:31:32.270Z,61.42
2023-01-13T03:34:07.781Z,54.92
2023-01-13T03:36:38.839Z,53.03
2023-01-13T03:39:12.852Z,56.58
2023-01-13T03:41:53.010Z,55.47
2023-01-13T03:44:33.841Z,54.20
2023-01-13T03:47:11.563Z,68.25
2023-01-13T03:50:05.425Z,60.03
2023-01-13T03:52:41.623Z,63.53
2023-01-13T03:55:16.380Z,70.18
2023-01-13T03:58:10.515Z,63.05
2023-01-13T04:00:47.175Z,73.30
2023-01-13T04:03:25.731Z,60.17
2023-01-13T04:06:25.751Z,59.05
2023-01-13T04:09:27.715Z,62.70
2023-01-13T04:12:10.740Z,63.00
2023-01-13T04:14:38.936Z,59.83
2023-01-13T04:17:06.010Z,66.57
2023-01-13T04:19:33.119Z,56.17
2023-01-13T04:22:00.214Z,65.65
2023-01-13T04:24:27.227Z,61.75
2023-01-13T04:26:56.448Z,60.65
2023-01-13T04:29:23.529Z,62.55
2023-01-13T04:31:50.515Z,54.88
2023-01-13T04:34:17.490Z,63.63
2023-01-13T04:36:45.222Z,62.55
2023-01-13T04:39:12.641Z,62.85
2023-01-13T04:41:57.775Z,69.25
2023-01-13T04:44:26.180Z,60.92
2023-01-13T04:46:53.788Z,65.32
2023-01-13T04:49:21.309Z,60.63
2023-01-13T04:51:48.509Z,63.38
2023-01-13T04:54:16.301Z,59.00
2023-01-13T04:56:43.703Z,64.70
2023-01-13T04:59:12.825Z,62.47
2023-01-13T05:01:40.837Z,56.47
2023-01-13T05:04:08.603Z,63.95
2023-01-13T05:06:35.860Z,58.85
2023-01-13T05:09:03.187Z,70.03
2023-01-13T05:11:48.542Z,69.00
2023-01-13T05:14:34.173Z,61.70
2023-01-13T05:17:01.238Z,56.47
2023-01-13T05:19:34.897Z,59.03
2023-01-13T05:22:21.538Z,61.72
2023-01-13T05:25:06.998Z,74.10
2023-01-13T05:27:33.978Z,74.05
2023-01-13T05:30:01.343Z,71.35
2023-01-13T05:32:28.481Z,63.03
2023-01-13T05:34:56.492Z,68.85
2023-01-13T05:37:24.317Z,64.65
2023-01-13T05:40:10.245Z,67.18
2023-01-13T05:42:55.665Z,64.80
2023-01-13T05:45:23.799Z,65.95
2023-01-13T05:47:50.954Z,62.75
2023-01-13T05:50:18.855Z,68.55
2023-01-13T05:52:45.924Z,62.25
2023-01-13T05:55:12.952Z,69.15
2023-01-13T05:57:40.119Z,70.05
2023-01-13T06:00:10.163Z,61.58
2023-01-13T06:02:40.116Z,63.08
2023-01-13T06:05:07.806Z,63.10
2023-01-13T06:07:34.748Z,63.47
2023-01-13T06:10:01.903Z,61.17
2023-01-13T06:12:29.097Z,61.92
2023-01-13T06:14:56.077Z,54.80
2023-01-13T06:17:23.040Z,62.88
2023-01-13T06:19:51.133Z,58.05
2023-01-13T06:22:25.684Z,59.35
2023-01-13T06:24:54.653Z,59.53
2023-01-13T06:27:23.167Z,67.97
2023-01-13T06:29:50.481Z,60.92
2023-01-13T06:32:42.925Z,61.20
2023-01-13T06:35:14.991Z,61.63
2023-01-13T06:37:45.260Z,60.78
2023-01-13T06:40:15.360Z,59.58
2023-01-13T06:43:00.980Z,60.72
2023-01-13T06:45:31.403Z,61.70
2023-01-13T06:47:59.963Z,64.53
2023-01-13T06:50:29.005Z,57.15
2023-01-13T06:52:56.401Z,62.90
2023-01-13T06:55:23.433Z,64.43
2023-01-13T06:57:55.859Z,60.40
2023-01-13T07:00:25.399Z,61.20
2023-01-13T07:02:53.941Z,66.68
2023-01-13T07:05:22.565Z,54.20
2023-01-13T07:07:49.530Z,65.10
2023-01-13T07:10:22.605Z,65.80
2023-01-13T07:13:08.517Z,63.50
2023-01-13T07:15:35.594Z,62.85
2023-01-13T07:18:03.496Z,60.35
2023-01-13T07:20:31.030Z,63.88
2023-01-13T07:22:58.526Z,61.92
2023-01-13T07:25:25.907Z,64.22
2023-01-13T07:27:52.871Z,65.88
2023-01-13T07:30:19.889Z,63.63
2023-01-13T07:32:46.971Z,65.28
2023-01-13T07:35:14.037Z,63.10
2023-01-13T07:37:41.978Z,65.07
2023-01-13T07:40:10.220Z,60.25
2023-01-13T07:42:57.523Z,70.90
2023-01-13T07:45:24.473Z,70.78
2023-01-13T07:47:53.189Z,68.32
2023-01-13T07:50:21.765Z,67.60
2023-01-13T07:52:48.921Z,65.43
2023-01-13T07:55:16.092Z,72.53
2023-01-13T07:57:43.499Z,73.18
2023-01-13T08:00:13.047Z,76.50
2023-01-13T08:02:40.439Z,68.93
2023-01-13T08:05:08.568Z,80.30
2023-01-13T08:07:36.073Z,71.55
2023-01-13T08:10:04.555Z,68.25
2023-01-13T08:12:53.577Z,73.30
2023-01-13T08:15:24.971Z,72.13
2023-01-13T08:17:52.340Z,71.68
2023-01-13T08:20:19.452Z,72.72
2023-01-13T08:22:46.561Z,73.97
2023-01-13T08:25:14.084Z,64.70
2023-01-13T08:27:41.337Z,70.53
2023-01-13T08:30:09.680Z,74.13
2023-01-13T08:32:36.579Z,77.45
2023-01-13T08:35:03.646Z,79.53
2023-01-13T08:37:30.737Z,83.68
2023-01-13T08:39:57.717Z,82.00
2023-01-13T08:42:26.555Z,81.72
2023-01-13T08:44:54.846Z,81.43
2023-01-13T08:47:22.341Z,81.10
2023-01-13T08:49:49.409Z,83.03
2023-01-13T08:52:17.351Z,83.43
2023-01-13T08:54:44.366Z,88.63
2023-01-13T08:57:11.370Z,86.85
2023-01-13T08:59:38.479Z,82.60
2023-01-13T09:02:17.653Z,82.80
2023-01-13T09:04:45.626Z,79.32
2023-01-13T09:07:13.177Z,80.80
2023-01-13T09:09:40.339Z,82.25
2023-01-13T09:12:26.735Z,91.22
2023-01-13T09:14:53.708Z,81.25
2023-01-13T09:17:20.852Z,77.38
2023-01-13T09:19:47.875Z,83.43
2023-01-13T09:22:17.525Z,82.28
2023-01-13T09:24:45.506Z,79.13
2023-01-13T09:27:14.986Z,83.03
2023-01-13T09:29:42.184Z,76.68
2023-01-13T09:32:13.853Z,84.60
2023-01-13T09:35:00.053Z,84.63
2023-01-13T09:37:34.427Z,84.15
2023-01-13T09:43:14.231Z,77.30
2023-01-13T09:45:54.095Z,74.70
2023-01-13T09:48:29.393Z,83.22
2023-01-13T09:51:21.030Z,84.20
2023-01-13T09:53:59.492Z,87.22
2023-01-13T09:56:27.176Z,84.07
2023-01-13T09:58:54.511Z,80.95
2023-01-13T10:01:45.178Z,82.18
2023-01-13T10:04:15.042Z,78.03
2023-01-13T10:06:50.376Z,76.68
2023-01-13T10:09:42.681Z,83.43
2023-01-13T10:12:40.960Z,80.70
2023-01-13T10:15:17.275Z,84.93
2023-01-13T10:18:13.018Z,84.20
2023-01-13T10:21:04.565Z,75.25
2023-01-13T10:24:01.926Z,85.68
2023-01-13T10:27:13.332Z,87.20
2023-01-13T10:29:40.339Z,79.18
2023-01-13T10:32:07.288Z,88.32
2023-01-13T10:34:51.529Z,78.35
2023-01-13T10:37:27.240Z,84.38
2023-01-13T10:40:01.667Z,80.38
2023-01-13T10:42:30.146Z,78.80
2023-01-13T10:45:00.009Z,77.47
2023-01-13T10:47:36.570Z,86.05
2023-01-13T10:50:24.834Z,82.60
2023-01-13T10:53:00.848Z,74.32
2023-01-13T10:55:34.465Z,74.07
2023-01-13T10:58:18.923Z,76.93
2023-01-13T11:03:17.065Z,78.43
2023-01-13T11:05:59.478Z,70.32
2023-01-13T11:08:31.086Z,74.75
2023-01-13T11:10:59.949Z,72.07
2023-01-13T11:13:59.724Z,66.53
2023-01-13T11:16:28.066Z,63.75
2023-01-13T11:19:12.130Z,64.63
2023-01-13T11:21:56.589Z,67.57
2023-01-13T11:24:40.485Z,69.28
2023-01-13T11:27:51.136Z,70.18
2023-01-13T11:30:44.300Z,68.55
2023-01-13T11:33:14.126Z,66.47
2023-01-13T11:35:58.945Z,67.90
2023-01-13T11:38:37.777Z,64.03
2023-01-13T11:41:39.966Z,59.65
2023-01-13T11:44:26.532Z,70.38
2023-01-13T11:46:55.329Z,63.22
2023-01-13T11:49:29.231Z,66.40
2023-01-13T11:52:21.938Z,62.75
2023-01-13T11:55:28.782Z,65.50
2023-01-13T11:58:50.203Z,61.92
2023-01-13T12:01:54.494Z,59.70
2023-01-13T12:05:11.102Z,54.63
2023-01-13T12:07:59.467Z,53.22
2023-01-13T12:10:43.886Z,56.80
2023-01-13T12:13:59.884Z,71.07
2023-01-13T12:16:30.745Z,56.83
2023-01-13T12:19:30.227Z,59.80
2023-01-13T12:22:36.064Z,55.72
2023-01-13T12:25:20.887Z,54.22
2023-01-13T12:28:13.223Z,53.95
2023-01-13T12:30:56.232Z,55.80
2023-01-13T12:33:58.568Z,54.35
2023-01-13T12:36:51.992Z,55.67
2023-01-13T12:40:09.116Z,56.08
2023-01-13T12:43:19.279Z,53.15
2023-01-13T12:45:46.286Z,61.78
2023-01-13T12:48:59.547Z,64.35
2023-01-13T12:51:36.741Z,51.30
2023-01-13T12:54:53.870Z,53.47
2023-01-13T12:57:27.914Z,56.72
2023-01-13T13:02:33.634Z,47.35
2023-01-13T13:05:23.113Z,51.15
2023-01-13T13:08:05.907Z,48.08
2023-01-13T13:10:38.069Z,49.13
2023-01-13T13:13:22.666Z,46.95
2023-01-13T13:15:51.662Z,53.40
2023-01-13T13:18:19.563Z,49.95
2023-01-13T13:21:04.655Z,47.95
2023-01-13T13:23:45.874Z,46.78
2023-01-13T13:26:24.964Z,44.40
2023-01-13T13:29:22.389Z,44.22
2023-01-13T13:32:25.808Z,43.38
2023-01-13T13:35:32.065Z,49.20
2023-01-13T13:39:05.680Z,45.25
2023-01-13T13:41:55.256Z,45.25
2023-01-13T13:44:59.709Z,44.35
2023-01-13T13:47:39.163Z,43.60
2023-01-13T13:50:20.473Z,49.33
2023-01-13T13:53:00.486Z,46.53
2023-01-13T13:55:29.982Z,44.05
2023-01-13T13:57:59.396Z,43.67
2023-01-13T14:00:35.071Z,45.10
2023-01-13T14:03:24.928Z,44.45
2023-01-13T14:05:59.424Z,46.92
2023-01-13T14:08:30.058Z,47.30
2023-01-13T14:10:57.327Z,41.22
2023-01-13T14:13:33.076Z,44.33
2023-01-13T14:16:03.701Z,44.13
2023-01-13T14:18:45.031Z,48.25
2023-01-13T14:21:30.086Z,38.83
2023-01-13T14:24:10.704Z,41.95
2023-01-13T14:26:37.943Z,45.88
2023-01-13T14:29:06.217Z,41.85
2023-01-13T14:31:34.635Z,44.65
2023-01-13T14:34:30.678Z,42.58
2023-01-13T14:36:51.419Z,39.88
2023-01-13T14:39:18.295Z,42.53
2023-01-13T14:41:48.300Z,41.20
2023-01-13T14:44:24.223Z,48.25
2023-01-13T14:46:55.121Z,44.80
2023-01-13T14:49:36.076Z,44.15
2023-01-13T14:52:09.816Z,43.55
2023-01-13T14:54:59.999Z,45.88
2023-01-13T14:57:34.953Z,43.40
2023-01-13T15:00:14.451Z,44.33
2023-01-13T15:02:43.998Z,48.13
2023-01-13T15:05:17.121Z,50.95
2023-01-13T15:08:11.498Z,47.65
2023-01-13T15:11:06.581Z,48.22
2023-01-13T15:13:55.053Z,48.80
2023-01-13T15:16:25.626Z,51.60
2023-01-13T15:18:56.442Z,50.58
2023-01-13T15:21:25.118Z,48.47
2023-01-13T15:23:52.232Z,48.63
2023-01-13T15:26:29.760Z,42.90
2023-01-13T15:28:59.134Z,48.22
2023-01-13T15:31:28.438Z,51.42
2023-01-13T15:33:55.814Z,47.33
2023-01-13T15:36:32.308Z,48.53
2023-01-13T15:39:01.287Z,48.97
2023-01-13T15:41:47.390Z,51.30
2023-01-13T15:44:34.849Z,49.45
2023-01-13T15:47:06.309Z,48.83
2023-01-13T15:49:45.447Z,47.92
2023-01-13T15:52:32.876Z,49.00
2023-01-13T15:54:59.804Z,53.45
2023-01-13T15:57:28.703Z,56.17
2023-01-13T15:59:58.844Z,52.28
2023-01-13T16:02:26.789Z,53.03
2023-01-13T16:04:54.520Z,53.92
2023-01-13T16:07:24.237Z,49.65
2023-01-13T16:09:52.195Z,51.53
2023-01-13T16:12:19.226Z,47.50
2023-01-13T16:14:46.232Z,49.75
2023-01-13T16:17:20.374Z,48.83
2023-01-13T16:22:15.912Z,49.08
2023-01-13T16:24:43.503Z,53.53
2023-01-13T16:27:23.519Z,53.72
2023-01-13T16:29:52.747Z,57.85
2023-01-13T16:32:21.072Z,59.45
2023-01-13T16:34:48.595Z,51.45
2023-01-13T16:37:21.758Z,54.28
2023-01-13T16:39:48.807Z,48.53
2023-01-13T16:42:15.732Z,57.50
2023-01-13T16:44:44.126Z,50.85
2023-01-13T16:47:17.050Z,51.35
2023-01-13T16:49:44.831Z,53.92
2023-01-13T16:52:11.889Z,60.35
2023-01-13T16:54:38.869Z,64.15
2023-01-13T16:57:07.584Z,52.65
2023-01-13T16:59:34.524Z,57.53
2023-01-13T17:02:02.248Z,60.65
2023-01-13T17:04:29.292Z,54.70
2023-01-13T17:07:00.627Z,56.72
2023-01-13T17:09:29.125Z,62.58
2023-01-13T17:11:56.537Z,61.40
2023-01-13T17:14:24.360Z,58.50
2023-01-13T17:16:54.743Z,67.68
2023-01-13T17:19:23.351Z,60.33
2023-01-13T17:21:51.185Z,62.97
2023-01-13T17:24:18.516Z,58.60
2023-01-13T17:26:49.337Z,64.85
2023-01-13T17:29:19.178Z,56.47
2023-01-13T17:31:46.277Z,62.47
2023-01-13T17:34:13.784Z,54.22
2023-01-13T17:36:43.373Z,51.22
2023-01-13T17:39:24.403Z,53.60
2023-01-13T17:41:56.028Z,53.25
2023-01-13T17:44:23.642Z,58.72
2023-01-13T17:46:51.022Z,63.58
2023-01-13T17:49:21.342Z,59.63
2023-01-13T17:51:51.039Z,65.07
2023-01-13T17:54:18.641Z,66.05
2023-01-13T17:56:45.837Z,75.32
2023-01-13T17:59:16.191Z,74.43
2023-01-13T18:01:43.714Z,73.07
2023-01-13T18:04:21.369Z,67.45
2023-01-13T18:06:49.337Z,71.00
2023-01-13T18:09:17.147Z,74.07
2023-01-13T18:11:45.625Z,76.57
2023-01-13T18:14:14.765Z,74.13
2023-01-13T18:16:42.019Z,69.45
2023-01-13T18:19:29.269Z,71.55
2023-01-13T18:22:14.852Z,73.95
2023-01-13T18:25:00.752Z,69.20
2023-01-13T18:27:34.027Z,77.22
2023-01-13T18:30:02.919Z,71.05
2023-01-13T18:32:33.486Z,70.78
2023-01-13T18:35:06.471Z,65.85
2023-01-13T18:37:42.268Z,71.25
2023-01-13T18:40:13.134Z,70.75
2023-01-13T18:42:54.710Z,66.15
2023-01-13T18:45:26.860Z,67.35
2023-01-13T18:47:56.478Z,70.70
2023-01-13T18:50:24.722Z,63.40
2023-01-13T18:52:52.275Z,64.75
2023-01-13T18:55:19.923Z,66.82
2023-01-13T18:57:47.362Z,62.35
2023-01-13T19:00:20.331Z,67.03
2023-01-13T19:02:50.708Z,62.90
2023-01-13T19:05:18.320Z,62.30
2023-01-13T19:07:50.601Z,61.15
2023-01-13T19:10:18.591Z,75.07
2023-01-13T19:12:45.776Z,62.65
2023-01-13T19:15:13.156Z,76.00
2023-01-13T19:17:40.200Z,68.93
2023-01-13T19:20:08.395Z,64.38
2023-01-13T19:22:35.888Z,63.80
2023-01-13T19:25:06.009Z,67.38
2023-01-13T19:27:33.916Z,67.63
2023-01-13T19:30:01.378Z,90.55
2023-01-13T19:32:30.930Z,82.65
2023-01-13T19:34:59.649Z,88.90
2023-01-13T19:37:30.454Z,82.35
2023-01-13T19:39:59.698Z,83.35
2023-01-13T19:42:46.917Z,82.95
2023-01-13T19:45:26.572Z,71.05
2023-01-13T19:47:58.533Z,84.45
2023-01-13T19:50:26.216Z,86.72
2023-01-13T19:52:53.995Z,79.20
2023-01-13T19:55:21.011Z,76.97
2023-01-13T19:57:48.464Z,81.93
2023-01-13T20:00:20.836Z,77.20
2023-01-13T20:02:51.802Z,80.20
2023-01-13T20:05:22.628Z,80.70
2023-01-13T20:07:51.361Z,84.65
2023-01-13T20:10:20.893Z,81.30
2023-01-13T20:12:48.353Z,74.50
2023-01-13T20:15:15.463Z,74.72
2023-01-13T20:17:42.542Z,79.90
2023-01-13T20:20:12.041Z,75.88
2023-01-13T20:22:40.060Z,80.10
2023-01-13T20:25:08.949Z,75.07
2023-01-13T20:27:36.478Z,72.15
2023-01-13T20:30:05.756Z,71.30
2023-01-13T20:32:32.683Z,78.40
2023-01-13T20:34:59.878Z,74.50
2023-01-13T20:37:27.376Z,76.95
2023-01-13T20:39:55.318Z,78.25
2023-01-13T20:42:32.300Z,79.53
2023-01-13T20:45:01.311Z,79.57
2023-01-13T20:47:29.893Z,79.95
2023-01-13T20:49:57.265Z,77.82
2023-01-13T20:52:24.721Z,76.80
2023-01-13T20:54:51.861Z,74.43
2023-01-13T20:57:18.922Z,78.35
2023-01-13T20:59:46.037Z,79.55
2023-01-13T21:02:16.376Z,83.88
2023-01-13T21:04:44.104Z,79.13
2023-01-13T21:07:11.335Z,85.10
2023-01-13T21:09:38.482Z,77.95
2023-01-13T21:12:25.126Z,83.50
2023-01-13T21:15:11.108Z,81.13
2023-01-13T21:17:56.658Z,74.63
2023-01-13T21:20:24.880Z,71.72
2023-01-13T21:22:55.047Z,70.78
2023-01-13T21:25:22.547Z,69.45
2023-01-13T21:27:49.657Z,81.07
2023-01-13T21:30:17.872Z,81.57
2023-01-13T21:32:45.906Z,76.55
2023-01-13T21:35:14.767Z,84.32
2023-01-13T21:37:43.744Z,78.80
2023-01-13T21:40:15.073Z,76.00
2023-01-13T21:43:01.079Z,72.03
2023-01-13T21:45:46.744Z,72.05
2023-01-13T21:48:13.805Z,76.25
2023-01-13T21:50:42.322Z,71.20
2023-01-13T21:53:09.619Z,73.32
2023-01-13T21:55:36.929Z,73.93
2023-01-13T21:58:15.575Z,76.07
2023-01-13T22:00:45.314Z,79.65
2023-01-13T22:03:15.112Z,84.68
2023-01-13T22:05:42.276Z,85.85
2023-01-13T22:08:12.907Z,88.35
2023-01-13T22:10:57.261Z,83.95
2023-01-13T22:13:43.406Z,78.28
2023-01-13T22:16:10.601Z,85.13
2023-01-13T22:18:37.950Z,91.55
2023-01-13T22:21:05.468Z,84.40
2023-01-13T22:23:32.463Z,87.68
2023-01-13T22:26:04.655Z,74.13
2023-01-13T22:28:40.842Z,67.68
2023-01-13T22:31:17.224Z,69.57
2023-01-13T22:33:48.073Z,80.18
2023-01-13T22:36:15.693Z,79.13
2023-01-13T22:38:42.675Z,75.00
2023-01-13T22:41:11.237Z,73.60
2023-01-13T22:43:38.962Z,70.78
2023-01-13T22:46:13.232Z,66.90
2023-01-13T22:48:41.390Z,64.40
2023-01-13T22:51:14.771Z,66.50
2023-01-13T22:53:42.928Z,69.90
2023-01-13T22:56:21.012Z,64.10
2023-01-13T22:58:49.094Z,62.35
2023-01-13T23:01:17.891Z,63.53
2023-01-13T23:03:48.037Z,68.80
2023-01-13T23:06:17.098Z,64.28
2023-01-13T23:08:46.255Z,59.30
2023-01-13T23:11:16.293Z,60.50
2023-01-13T23:13:43.875Z,54.25
2023-01-13T23:16:14.978Z,52.33
2023-01-13T23:18:42.708Z,63.20
2023-01-13T23:21:14.080Z,61.70
2023-01-13T23:23:41.103Z,71.00
2023-01-13T23:26:09.877Z,70.18
2023-01-13T23:28:37.745Z,64.03
2023-01-13T23:31:14.746Z,78.22
2023-01-13T23:33:43.486Z,71.10
2023-01-13T23:36:27.517Z,72.40
2023-01-13T23:38:54.928Z,73.53
2023-01-13T23:41:24.690Z,62.47
2023-01-13T23:43:59.446Z,64.25
2023-01-13T23:46:30.024Z,70.78
2023-01-13T23:48:57.119Z,66.03
2023-01-13T23:51:26.308Z,73.57
2023-01-13T23:53:54.186Z,73.53
2023-01-13T23:56:24.543Z,72.38
2023-01-13T23:58:52.211Z,80.70
